sensor_id;sensor_type;location;lat;lon;timestamp;pressure;altitude;pressure_sealevel;temperature;humidity
63009;BME280;49099;28.428;-16.488;2023-02-13T13:51:18;98662.16;;;19.48;60.89
63009;BME280;49099;28.428;-16.488;2023-02-13T14:05:18;98639.50;;;19.66;59.89
63009;BME280;49099;28.428;-16.488;2023-02-13T14:07:59;98646.34;;;19.64;60.78
63009;BME280;49099;28.428;-16.488;2023-02-13T14:31:20;98612.75;;;19.79;60.18
63009;BME280;49099;28.428;-16.488;2023-02-13T14:34:03;98607.69;;;19.77;60.36
63009;BME280;49099;28.428;-16.488;2023-02-13T14:36:39;98610.84;;;19.79;60.38
63009;BME280;49099;28.428;-16.488;2023-02-13T14:44:21;98605.28;;;19.93;58.31
63009;BME280;49099;28.428;-16.488;2023-02-13T14:46:51;98602.22;;;20.03;58.29
63009;BME280;49099;28.428;-16.488;2023-02-13T14:49:23;98594.41;;;20.10;58.03
63009;BME280;49099;28.428;-16.488;2023-02-13T14:51:55;98587.31;;;20.06;49.05
63009;BME280;49099;28.428;-16.488;2023-02-13T14:57:06;98589.22;;;20.05;51.17
63009;BME280;49099;28.428;-16.488;2023-02-13T14:59:40;98595.81;;;20.16;53.72
63009;BME280;49099;28.428;-16.488;2023-02-13T15:02:18;98593.25;;;20.20;56.01
63009;BME280;49099;28.428;-16.488;2023-02-13T15:05:06;98600.19;;;20.29;53.89
63009;BME280;49099;28.428;-16.488;2023-02-13T15:07:44;98585.28;;;20.32;54.35
63009;BME280;49099;28.428;-16.488;2023-02-13T15:10:41;98592.03;;;20.38;55.07
63009;BME280;49099;28.428;-16.488;2023-02-13T15:15:53;98592.38;;;20.37;56.56
63009;BME280;49099;28.428;-16.488;2023-02-13T15:18:28;98591.59;;;20.36;57.21
63009;BME280;49099;28.428;-16.488;2023-02-13T15:20:57;98590.28;;;20.42;56.72
63009;BME280;49099;28.428;-16.488;2023-02-13T15:23:31;98591.88;;;20.43;56.28
63009;BME280;49099;28.428;-16.488;2023-02-13T15:26:01;98591.41;;;20.50;55.47
63009;BME280;49099;28.428;-16.488;2023-02-13T15:28:29;98596.13;;;20.53;56.04
63009;BME280;49099;28.428;-16.488;2023-02-13T15:30:58;98599.94;;;20.43;55.49
63009;BME280;49099;28.428;-16.488;2023-02-13T15:33:31;98600.28;;;20.42;55.61
63009;BME280;49099;28.428;-16.488;2023-02-13T15:36:04;98609.31;;;20.46;54.12
63009;BME280;49099;28.428;-16.488;2023-02-13T15:38:35;98604.41;;;20.48;54.08
63009;BME280;49099;28.428;-16.488;2023-02-13T15:41:07;98605.59;;;20.59;54.12
63009;BME280;49099;28.428;-16.488;2023-02-13T15:43:47;98596.84;;;20.62;54.92
63009;BME280;49099;28.428;-16.488;2023-02-13T15:46:23;98602.06;;;20.67;54.64
63009;BME280;49099;28.428;-16.488;2023-02-13T15:48:53;98601.66;;;20.77;55.41
63009;BME280;49099;28.428;-16.488;2023-02-13T15:51:29;98598.66;;;20.79;55.38
63009;BME280;49099;28.428;-16.488;2023-02-13T15:56:25;98591.47;;;20.62;55.49
63009;BME280;49099;28.428;-16.488;2023-02-13T15:58:53;98607.44;;;20.67;55.24
63009;BME280;49099;28.428;-16.488;2023-02-13T16:01:22;98607.72;;;20.74;55.36
63009;BME280;49099;28.428;-16.488;2023-02-13T16:03:58;98610.22;;;20.79;54.60
63009;BME280;49099;28.428;-16.488;2023-02-13T16:06:25;98611.47;;;20.82;54.52
63009;BME280;49099;28.428;-16.488;2023-02-13T16:08:57;98612.97;;;20.92;53.73
63009;BME280;49099;28.428;-16.488;2023-02-13T16:13:59;98607.00;;;21.07;51.23
63009;BME280;49099;28.428;-16.488;2023-02-13T16:16:30;98611.75;;;21.10;52.30
63009;BME280;49099;28.428;-16.488;2023-02-13T16:18:59;98613.66;;;21.09;53.61
63009;BME280;49099;28.428;-16.488;2023-02-13T16:21:28;98625.69;;;21.12;54.25
63009;BME280;49099;28.428;-16.488;2023-02-13T16:24:00;98631.88;;;21.12;54.73
63009;BME280;49099;28.428;-16.488;2023-02-13T16:26:28;98633.38;;;21.22;54.37
63009;BME280;49099;28.428;-16.488;2023-02-13T16:28:57;98639.44;;;21.19;54.54
63009;BME280;49099;28.428;-16.488;2023-02-13T16:31:24;98630.63;;;21.10;54.47
63009;BME280;49099;28.428;-16.488;2023-02-13T16:33:51;98630.38;;;21.03;54.31
63009;BME280;49099;28.428;-16.488;2023-02-13T16:36:27;98633.19;;;21.06;53.54
63009;BME280;49099;28.428;-16.488;2023-02-13T16:38:54;98634.38;;;20.97;53.74
63009;BME280;49099;28.428;-16.488;2023-02-13T16:44:02;98640.38;;;20.43;55.34
63009;BME280;49099;28.428;-16.488;2023-02-13T16:46:30;98644.41;;;20.28;55.94
63009;BME280;49099;28.428;-16.488;2023-02-13T16:49:00;98643.78;;;20.23;55.81
63009;BME280;49099;28.428;-16.488;2023-02-13T16:51:41;98644.00;;;20.09;55.94
63009;BME280;49099;28.428;-16.488;2023-02-13T16:56:41;98636.47;;;19.85;56.83
63009;BME280;49099;28.428;-16.488;2023-02-13T17:04:34;98647.88;;;19.82;56.94
63009;BME280;49099;28.428;-16.488;2023-02-13T17:07:11;98652.31;;;19.87;57.25
63009;BME280;49099;28.428;-16.488;2023-02-13T17:09:39;98648.34;;;19.93;56.90
63009;BME280;49099;28.428;-16.488;2023-02-13T17:12:16;98653.06;;;19.96;56.55
63009;BME280;49099;28.428;-16.488;2023-02-13T17:14:44;98652.94;;;19.92;56.69
63009;BME280;49099;28.428;-16.488;2023-02-13T17:17:14;98649.41;;;20.09;56.09
63009;BME280;49099;28.428;-16.488;2023-02-13T17:19:42;98655.81;;;20.25;55.21
63009;BME280;49099;28.428;-16.488;2023-02-13T17:22:26;98650.22;;;20.39;54.28
63009;BME280;49099;28.428;-16.488;2023-02-13T17:25:00;98650.34;;;20.43;54.09
63009;BME280;49099;28.428;-16.488;2023-02-13T17:27:28;98659.31;;;20.64;53.47
63009;BME280;49099;28.428;-16.488;2023-02-13T17:29:55;98651.78;;;20.78;53.51
63009;BME280;49099;28.428;-16.488;2023-02-13T17:32:24;98650.00;;;20.82;53.47
63009;BME280;49099;28.428;-16.488;2023-02-13T17:34:52;98650.59;;;20.88;53.27
63009;BME280;49099;28.428;-16.488;2023-02-13T17:37:25;98642.97;;;20.90;53.08
63009;BME280;49099;28.428;-16.488;2023-02-13T17:39:53;98637.75;;;20.85;53.00
63009;BME280;49099;28.428;-16.488;2023-02-13T17:42:26;98640.66;;;20.80;53.51
63009;BME280;49099;28.428;-16.488;2023-02-13T17:44:54;98641.63;;;20.75;53.82
63009;BME280;49099;28.428;-16.488;2023-02-13T17:47:23;98642.59;;;20.79;54.06
63009;BME280;49099;28.428;-16.488;2023-02-13T17:49:51;98643.38;;;20.80;53.75
63009;BME280;49099;28.428;-16.488;2023-02-13T17:52:30;98650.25;;;20.69;54.28
63009;BME280;49099;28.428;-16.488;2023-02-13T17:54:57;98659.78;;;20.66;54.87
63009;BME280;49099;28.428;-16.488;2023-02-13T17:57:24;98668.97;;;20.65;54.57
63009;BME280;49099;28.428;-16.488;2023-02-13T17:59:51;98660.50;;;20.46;55.08
63009;BME280;49099;28.428;-16.488;2023-02-13T18:02:20;98665.13;;;20.37;55.89
63009;BME280;49099;28.428;-16.488;2023-02-13T18:04:48;98674.84;;;20.20;56.65
63009;BME280;49099;28.428;-16.488;2023-02-13T18:07:18;98682.16;;;20.11;57.12
63009;BME280;49099;28.428;-16.488;2023-02-13T18:09:46;98674.91;;;20.03;57.54
63009;BME280;49099;28.428;-16.488;2023-02-13T18:12:20;98680.66;;;19.93;57.70
63009;BME280;49099;28.428;-16.488;2023-02-13T18:14:48;98688.56;;;19.81;57.54
63009;BME280;49099;28.428;-16.488;2023-02-13T18:17:16;98689.84;;;19.74;58.33
63009;BME280;49099;28.428;-16.488;2023-02-13T18:19:44;98686.06;;;19.67;58.72
63009;BME280;49099;28.428;-16.488;2023-02-13T18:22:12;98702.22;;;19.58;58.85
63009;BME280;49099;28.428;-16.488;2023-02-13T18:24:40;98699.34;;;19.46;59.35
63009;BME280;49099;28.428;-16.488;2023-02-13T18:27:08;98705.34;;;19.43;59.31
63009;BME280;49099;28.428;-16.488;2023-02-13T18:29:37;98710.56;;;19.39;59.20
63009;BME280;49099;28.428;-16.488;2023-02-13T18:32:05;98716.41;;;19.33;59.87
63009;BME280;49099;28.428;-16.488;2023-02-13T18:34:37;98716.75;;;19.23;60.91
63009;BME280;49099;28.428;-16.488;2023-02-13T18:37:05;98726.19;;;19.11;60.96
63009;BME280;49099;28.428;-16.488;2023-02-13T18:39:33;98719.84;;;18.99;61.52
63009;BME280;49099;28.428;-16.488;2023-02-13T18:42:00;98719.66;;;18.86;61.91
63009;BME280;49099;28.428;-16.488;2023-02-13T18:44:27;98725.69;;;18.83;61.90
63009;BME280;49099;28.428;-16.488;2023-02-13T18:46:54;98729.59;;;18.77;62.17
63009;BME280;49099;28.428;-16.488;2023-02-13T18:49:22;98722.47;;;18.73;62.47
63009;BME280;49099;28.428;-16.488;2023-02-13T18:51:49;98731.16;;;18.70;62.47
63009;BME280;49099;28.428;-16.488;2023-02-13T18:54:17;98728.28;;;18.66;63.04
63009;BME280;49099;28.428;-16.488;2023-02-13T18:56:44;98732.19;;;18.60;62.90
63009;BME280;49099;28.428;-16.488;2023-02-13T18:59:12;98738.50;;;18.55;63.26
63009;BME280;49099;28.428;-16.488;2023-02-13T19:01:40;98741.19;;;18.55;63.50
63009;BME280;49099;28.428;-16.488;2023-02-13T19:04:09;98746.56;;;18.55;63.50
63009;BME280;49099;28.428;-16.488;2023-02-13T19:06:40;98748.25;;;18.51;63.78
63009;BME280;49099;28.428;-16.488;2023-02-13T19:09:08;98747.78;;;18.49;63.75
63009;BME280;49099;28.428;-16.488;2023-02-13T19:11:36;98744.63;;;18.47;63.79
63009;BME280;49099;28.428;-16.488;2023-02-13T19:14:05;98750.13;;;18.42;64.06
63009;BME280;49099;28.428;-16.488;2023-02-13T19:16:33;98757.06;;;18.43;63.99
63009;BME280;49099;28.428;-16.488;2023-02-13T19:19:03;98765.13;;;18.43;64.13
63009;BME280;49099;28.428;-16.488;2023-02-13T19:21:33;98766.72;;;18.44;63.61
63009;BME280;49099;28.428;-16.488;2023-02-13T19:24:02;98762.16;;;18.45;63.53
63009;BME280;49099;28.428;-16.488;2023-02-13T19:26:29;98766.53;;;18.41;63.82
63009;BME280;49099;28.428;-16.488;2023-02-13T19:28:57;98768.44;;;18.40;63.63
63009;BME280;49099;28.428;-16.488;2023-02-13T19:31:26;98779.19;;;18.40;63.31
63009;BME280;49099;28.428;-16.488;2023-02-13T19:33:54;98776.34;;;18.36;64.02
63009;BME280;49099;28.428;-16.488;2023-02-13T19:36:24;98781.69;;;18.36;63.84
63009;BME280;49099;28.428;-16.488;2023-02-13T19:38:56;98788.16;;;18.35;63.52
63009;BME280;49099;28.428;-16.488;2023-02-13T19:41:24;98787.06;;;18.36;63.32
63009;BME280;49099;28.428;-16.488;2023-02-13T19:43:51;98784.06;;;18.38;63.52
63009;BME280;49099;28.428;-16.488;2023-02-13T19:46:23;98793.25;;;18.37;63.66
63009;BME280;49099;28.428;-16.488;2023-02-13T19:48:51;98795.59;;;18.38;63.05
63009;BME280;49099;28.428;-16.488;2023-02-13T19:51:21;98797.00;;;18.36;63.11
63009;BME280;49099;28.428;-16.488;2023-02-13T19:56:27;98805.63;;;18.24;62.96
63009;BME280;49099;28.428;-16.488;2023-02-13T19:58:55;98812.25;;;18.27;62.35
63009;BME280;49099;28.428;-16.488;2023-02-13T20:01:24;98811.03;;;18.33;62.50
63009;BME280;49099;28.428;-16.488;2023-02-13T20:03:51;98806.94;;;18.35;62.23
63009;BME280;49099;28.428;-16.488;2023-02-13T20:06:21;98807.44;;;18.37;62.49
63009;BME280;49099;28.428;-16.488;2023-02-13T20:08:49;98806.66;;;18.37;62.86
63009;BME280;49099;28.428;-16.488;2023-02-13T20:11:18;98806.03;;;18.40;62.31
63009;BME280;49099;28.428;-16.488;2023-02-13T20:13:46;98807.13;;;18.39;62.05
63009;BME280;49099;28.428;-16.488;2023-02-13T20:16:15;98812.50;;;18.39;62.63
63009;BME280;49099;28.428;-16.488;2023-02-13T20:18:42;98815.69;;;18.41;62.19
63009;BME280;49099;28.428;-16.488;2023-02-13T20:21:12;98824.03;;;18.40;62.07
63009;BME280;49099;28.428;-16.488;2023-02-13T20:23:41;98825.47;;;18.37;61.87
63009;BME280;49099;28.428;-16.488;2023-02-13T20:26:12;98820.69;;;18.34;61.72
63009;BME280;49099;28.428;-16.488;2023-02-13T20:28:43;98826.69;;;18.31;61.84
63009;BME280;49099;28.428;-16.488;2023-02-13T20:31:19;98835.03;;;18.29;61.71
63009;BME280;49099;28.428;-16.488;2023-02-13T20:33:48;98824.41;;;18.24;61.77
63009;BME280;49099;28.428;-16.488;2023-02-13T20:36:19;98825.53;;;18.23;61.34
63009;BME280;49099;28.428;-16.488;2023-02-13T20:38:47;98827.72;;;18.21;61.23
63009;BME280;49099;28.428;-16.488;2023-02-13T20:41:19;98823.44;;;18.20;61.08
63009;BME280;49099;28.428;-16.488;2023-02-13T20:43:46;98826.44;;;18.19;61.07
63009;BME280;49099;28.428;-16.488;2023-02-13T20:46:14;98825.94;;;18.17;60.69
63009;BME280;49099;28.428;-16.488;2023-02-13T20:48:45;98830.94;;;18.09;61.03
63009;BME280;49099;28.428;-16.488;2023-02-13T20:51:14;98837.22;;;18.05;61.21
63009;BME280;49099;28.428;-16.488;2023-02-13T20:53:43;98840.81;;;18.00;61.35
63009;BME280;49099;28.428;-16.488;2023-02-13T20:56:13;98840.44;;;17.93;61.15
63009;BME280;49099;28.428;-16.488;2023-02-13T20:58:41;98835.38;;;17.92;61.42
63009;BME280;49099;28.428;-16.488;2023-02-13T21:01:11;98844.53;;;17.91;61.47
63009;BME280;49099;28.428;-16.488;2023-02-13T21:03:39;98844.16;;;17.84;61.55
63009;BME280;49099;28.428;-16.488;2023-02-13T21:06:07;98847.25;;;17.77;61.13
63009;BME280;49099;28.428;-16.488;2023-02-13T21:08:35;98853.50;;;17.72;60.96
63009;BME280;49099;28.428;-16.488;2023-02-13T21:11:04;98848.25;;;17.67;61.94
63009;BME280;49099;28.428;-16.488;2023-02-13T21:13:32;98852.91;;;17.62;61.52
63009;BME280;49099;28.428;-16.488;2023-02-13T21:16:09;98855.59;;;17.62;61.40
63009;BME280;49099;28.428;-16.488;2023-02-13T21:18:37;98859.06;;;17.62;61.56
63009;BME280;49099;28.428;-16.488;2023-02-13T21:21:06;98861.94;;;17.66;61.80
63009;BME280;49099;28.428;-16.488;2023-02-13T21:23:33;98861.94;;;17.66;61.83
63009;BME280;49099;28.428;-16.488;2023-02-13T21:26:10;98859.25;;;17.66;62.09
63009;BME280;49099;28.428;-16.488;2023-02-13T21:28:39;98863.53;;;17.67;62.11
63009;BME280;49099;28.428;-16.488;2023-02-13T21:31:10;98856.88;;;17.64;62.27
63009;BME280;49099;28.428;-16.488;2023-02-13T21:33:38;98863.34;;;17.63;62.10
63009;BME280;49099;28.428;-16.488;2023-02-13T21:36:08;98862.25;;;17.64;61.98
63009;BME280;49099;28.428;-16.488;2023-02-13T21:38:37;98873.47;;;17.66;61.86
63009;BME280;49099;28.428;-16.488;2023-02-13T21:41:13;98868.59;;;17.68;61.96
63009;BME280;49099;28.428;-16.488;2023-02-13T21:43:41;98864.03;;;17.69;61.79
63009;BME280;49099;28.428;-16.488;2023-02-13T21:46:15;98873.19;;;17.68;61.47
63009;BME280;49099;28.428;-16.488;2023-02-13T21:48:43;98869.41;;;17.69;61.00
63009;BME280;49099;28.428;-16.488;2023-02-13T21:51:18;98868.31;;;17.70;60.88
63009;BME280;49099;28.428;-16.488;2023-02-13T21:53:46;98869.41;;;17.69;61.02
63009;BME280;49099;28.428;-16.488;2023-02-13T21:56:19;98872.19;;;17.64;61.23
63009;BME280;49099;28.428;-16.488;2023-02-13T21:58:47;98882.91;;;17.64;60.71
63009;BME280;49099;28.428;-16.488;2023-02-13T22:03:57;98886.19;;;17.61;60.32
63009;BME280;49099;28.428;-16.488;2023-02-13T22:06:27;98881.94;;;17.60;60.46
63009;BME280;49099;28.428;-16.488;2023-02-13T22:08:57;98884.31;;;17.61;59.91
63009;BME280;49099;28.428;-16.488;2023-02-13T22:11:25;98884.31;;;17.61;60.05
63009;BME280;49099;28.428;-16.488;2023-02-13T22:13:56;98885.69;;;17.59;59.99
63009;BME280;49099;28.428;-16.488;2023-02-13T22:16:25;98890.25;;;17.58;59.65
63009;BME280;49099;28.428;-16.488;2023-02-13T22:18:53;98890.06;;;17.54;59.69
63009;BME280;49099;28.428;-16.488;2023-02-13T22:21:22;98892.44;;;17.56;59.58
63009;BME280;49099;28.428;-16.488;2023-02-13T22:23:50;98896.41;;;17.59;59.51
63009;BME280;49099;28.428;-16.488;2023-02-13T22:26:32;98897.41;;;17.63;59.66
63009;BME280;49099;28.428;-16.488;2023-02-13T22:29:03;98899.31;;;17.62;60.05
63009;BME280;49099;28.428;-16.488;2023-02-13T22:31:30;98896.81;;;17.66;60.16
63009;BME280;49099;28.428;-16.488;2023-02-13T22:33:58;98904.28;;;17.69;60.44
63009;BME280;49099;28.428;-16.488;2023-02-13T22:36:33;98904.78;;;17.71;60.69
63009;BME280;49099;28.428;-16.488;2023-02-13T22:39:00;98904.78;;;17.71;61.00
63009;BME280;49099;28.428;-16.488;2023-02-13T22:41:28;98910.16;;;17.71;61.19
63009;BME280;49099;28.428;-16.488;2023-02-13T22:43:55;98901.59;;;17.69;61.36
63009;BME280;49099;28.428;-16.488;2023-02-13T22:46:25;98911.75;;;17.72;61.50
63009;BME280;49099;28.428;-16.488;2023-02-13T22:48:53;98912.75;;;17.76;61.10
63009;BME280;49099;28.428;-16.488;2023-02-13T22:51:23;98915.91;;;17.78;61.13
63009;BME280;49099;28.428;-16.488;2023-02-13T22:53:54;98915.44;;;17.76;61.30
63009;BME280;49099;28.428;-16.488;2023-02-13T22:56:23;98914.31;;;17.77;61.47
63009;BME280;49099;28.428;-16.488;2023-02-13T22:58:50;98918.09;;;17.76;61.56
63009;BME280;49099;28.428;-16.488;2023-02-13T23:01:19;98918.09;;;17.76;61.67
63009;BME280;49099;28.428;-16.488;2023-02-13T23:03:47;98909.06;;;17.72;61.48
63009;BME280;49099;28.428;-16.488;2023-02-13T23:06:15;98919.78;;;17.72;61.71
63009;BME280;49099;28.428;-16.488;2023-02-13T23:08:43;98916.31;;;17.71;61.75
63009;BME280;49099;28.428;-16.488;2023-02-13T23:11:15;98903.78;;;17.67;61.95
63009;BME280;49099;28.428;-16.488;2023-02-13T23:14:02;98916.09;;;17.68;62.06
63009;BME280;49099;28.428;-16.488;2023-02-13T23:16:30;98911.84;;;17.67;62.19
63009;BME280;49099;28.428;-16.488;2023-02-13T23:19:18;98909.16;;;17.67;62.49
63009;BME280;49099;28.428;-16.488;2023-02-13T23:21:46;98902.97;;;17.66;62.28
63009;BME280;49099;28.428;-16.488;2023-02-13T23:24:13;98903.78;;;17.67;62.44
63009;BME280;49099;28.428;-16.488;2023-02-13T23:26:40;98913.91;;;17.70;62.17
63009;BME280;49099;28.428;-16.488;2023-02-13T23:29:07;98912.31;;;17.69;62.11
63009;BME280;49099;28.428;-16.488;2023-02-13T23:31:35;98902.97;;;17.66;62.12
63009;BME280;49099;28.428;-16.488;2023-02-13T23:34:02;98907.53;;;17.66;62.01
63009;BME280;49099;28.428;-16.488;2023-02-13T23:36:30;98896.94;;;17.61;62.19
63009;BME280;49099;28.428;-16.488;2023-02-13T23:38:57;98895.84;;;17.62;62.27
63009;BME280;49099;28.428;-16.488;2023-02-13T23:41:24;98891.06;;;17.59;62.39
63009;BME280;49099;28.428;-16.488;2023-02-13T23:43:51;98886.28;;;17.55;62.73
63009;BME280;49099;28.428;-16.488;2023-02-13T23:46:18;98892.75;;;17.54;62.62
63009;BME280;49099;28.428;-16.488;2023-02-13T23:48:46;98890.97;;;17.50;62.60
63009;BME280;49099;28.428;-16.488;2023-02-13T23:51:13;98890.16;;;17.49;62.47
63009;BME280;49099;28.428;-16.488;2023-02-13T23:53:42;98889.06;;;17.50;62.09
63009;BME280;49099;28.428;-16.488;2023-02-13T23:56:09;98897.72;;;17.47;61.83
63009;BME280;49099;28.428;-16.488;2023-02-13T23:58:37;98898.03;;;17.46;61.64
